Pelican of London — MWAQ — position and weather

sailwx.info

Track history (hours):
 
Tides and Currents Weather Stations Pressure Air Temp Water Temp Dewpoint Dewpoint Depression Visibility Wind Speed Wind Dir Waves Ship Positions

Pelican of London

Ship's website: http://www.adventureundersail.com/

Last reported at 2020-Aug-12 06:29 UTC. Time now 2020-Aug-13 11:11 UTC.
Position N 49°58' W 004°60'.

Length 35 m; draft 4 m.

Type: Sailing vessel. MMSI: 235057366.

Date/timePositionNaut miles runAvg speedWind from/ knotsBaromVisibWave heightAir tempDewpointWater temp
2020-Aug-12 06:29N 49°58' W 004°60'11 1.2
2020-Aug-11 21:08N 50°10' W 005°03'0 0.0
2020-Aug-11 20:58N 50°10' W 005°03'0 0.0
2020-Aug-11 19:50N 50°10' W 005°03'16 2.3
2020-Aug-11 12:54N 50°11' W 004°38'22 6.1
2020-Aug-11 09:18N 50°22' W 004°08'0 0.0
2020-Aug-11 06:58N 50°22' W 004°08'0 0.0
2020-Aug-11 05:58N 50°22' W 004°08'0 0.0
2020-Aug-11 04:58N 50°22' W 004°08'0 0.0
2020-Aug-11 00:58N 50°22' W 004°08'0 0.0
2020-Aug-10 23:58N 50°22' W 004°08'0 0.0
2020-Aug-10 21:28N 50°22' W 004°08'0 0.0
2020-Aug-10 17:58N 50°22' W 004°08'0 0.0
2020-Aug-10 12:28N 50°22' W 004°08'0 0.0
2020-Aug-10 08:58N 50°22' W 004°08'0 0.0
2020-Aug-10 08:28N 50°22' W 004°08'0 0.0
2020-Aug-10 00:28N 50°22' W 004°08'0 0.0
2020-Aug-09 23:28N 50°22' W 004°08'0 0.0
2020-Aug-09 19:58N 50°22' W 004°08'0 0.0
2020-Aug-09 18:28N 50°22' W 004°08'0 0.0
2020-Aug-09 16:28N 50°22' W 004°08'0 0.0
2020-Aug-09 14:58N 50°22' W 004°08'0 0.0
2020-Aug-09 12:28N 50°22' W 004°08'0 0.0
2020-Aug-09 10:58N 50°22' W 004°08'0 0.0
2020-Aug-09 09:25N 50°22' W 004°08'3 0.8
2020-Aug-09 05:26N 50°20' W 004°11'0 0.0
2020-Aug-08 17:27N 50°20' W 004°11'25 8.3
2020-Aug-08 14:29N 50°09' W 003°36'11 7.6
2020-Aug-08 13:00N 50°09' W 003°19'5 3.2
2020-Aug-08 11:30N 50°11' W 003°12'1 2.7
2020-Aug-08 11:00N 50°11' W 003°09'2 1.4
2020-Aug-08 09:30N 50°11' W 003°06'1 1.9
2020-Aug-08 09:00N 50°12' W 003°05'3 3.0
2020-Aug-08 08:00N 50°12' W 003°00'15 5.1
2020-Aug-08 05:00N 50°18' W 002°38'6 6.2
2020-Aug-08 03:58N 50°20' W 002°28'5 5.0
2020-Aug-08 03:00N 50°21' W 002°21'10 4.9
2020-Aug-08 01:00N 50°25' W 002°07'2 1.7
2020-Aug-08 00:00N 50°26' W 002°06'3 1.7
2020-Aug-07 22:00N 50°29' W 002°09'2 0.8
2020-Aug-07 19:30N 50°29' W 002°12'3 1.4
2020-Aug-07 17:25N 50°30' W 002°08'3 3.1
2020-Aug-07 16:30N 50°31' W 002°03'16 6.4
2020-Aug-07 14:00N 50°38' W 001°41'8 8.2
2020-Aug-07 12:59N 50°43' W 001°31'4 7.2
2020-Aug-07 12:28N 50°45' W 001°25'7 3.8
2020-Aug-07 10:30N 50°52' W 001°22'2 3.2
2020-Aug-07 09:59N 50°53' W 001°24'0 0.0
2020-Aug-07 06:21N 50°53' W 001°24'0 0.0
2020-Aug-07 05:00N 50°53' W 001°24'0 0.0
2020-Aug-07 04:23N 50°53' W 001°24'1 0.1
2020-Aug-06 13:30N 50°52' W 001°23'16 2.2
2020-Aug-06 05:59N 50°39' W 001°09'0 0.0
2020-Aug-06 05:29N 50°39' W 001°09'0 0.0
2020-Aug-06 04:23N 50°39' W 001°09'0 0.0
2020-Aug-06 01:16N 50°39' W 001°09'22 7.8
2020-Aug-05 22:30N 50°37' W 000°35'17 6.8
2020-Aug-05 20:00N 50°37' W 000°08'3 7.0
2020-Aug-05 19:30N 50°37' W 000°03'15 7.7
2020-Aug-05 17:30N 50°39' E 000°21'23 6.6
2020-Aug-05 14:00N 50°51' E 000°53'5 4.7
2020-Aug-05 13:00N 50°53' E 000°59'2 4.3
2020-Aug-05 12:30N 50°54' E 001°02'12 0.4
2020-Aug-04 09:19N 51°05' E 001°12'0 0.1
2020-Aug-04 08:56N 51°05' E 001°12'0 0.3
2020-Aug-04 08:30N 51°05' E 001°12'26 7.0
2020-Aug-04 04:50N 50°46' E 000°44'7 8.1
2020-Aug-04 04:00N 50°42' E 000°35'7 7.3
2020-Aug-04 03:00N 50°39' E 000°24'25 5.2
2020-Aug-03 22:12N 50°36' W 000°15'37 7.6
2020-Aug-03 17:21N 50°29' W 001°12'5 5.3
2020-Aug-03 16:25N 50°28' W 001°19'4 3.8
2020-Aug-03 15:28N 50°28' W 001°25'56 6.5
2020-Aug-03 06:56N 50°14' W 002°49'1510.4
2020-Aug-03 05:30N 50°12' W 003°12'1010.0
2020-Aug-03 04:31N 50°09' W 003°27'82 4.5
2020-Aug-02 10:27N 50°41' W 005°26'4 9.3
2020-Aug-02 09:59N 50°44' W 005°21'  
Track history (hours):
 
Tides and Currents Weather Stations Pressure Air Temp Water Temp Dewpoint Dewpoint Depression Visibility Wind Speed Wind Dir Waves Ship Positions

Pelican of London

Ship's website: http://www.adventureundersail.com/

Last reported at 2020-Aug-12 06:29 UTC. Time now 2020-Aug-13 11:11 UTC.
Position N 49°58' W 004°60'.

Length 35 m; draft 4 m.

Type: Sailing vessel. MMSI: 235057366.

Date/timePositionNaut miles runAvg speedWind from/ knotsBaromVisibWave heightAir tempDewpointWater temp
2020-Aug-12 06:29N 49°58' W 004°60'11 1.2
2020-Aug-11 21:08N 50°10' W 005°03'0 0.0
2020-Aug-11 20:58N 50°10' W 005°03'0 0.0
2020-Aug-11 19:50N 50°10' W 005°03'16 2.3
2020-Aug-11 12:54N 50°11' W 004°38'22 6.1
2020-Aug-11 09:18N 50°22' W 004°08'0 0.0
2020-Aug-11 06:58N 50°22' W 004°08'0 0.0
2020-Aug-11 05:58N 50°22' W 004°08'0 0.0
2020-Aug-11 04:58N 50°22' W 004°08'0 0.0
2020-Aug-11 00:58N 50°22' W 004°08'0 0.0
2020-Aug-10 23:58N 50°22' W 004°08'0 0.0
2020-Aug-10 21:28N 50°22' W 004°08'0 0.0
2020-Aug-10 17:58N 50°22' W 004°08'0 0.0
2020-Aug-10 12:28N 50°22' W 004°08'0 0.0
2020-Aug-10 08:58N 50°22' W 004°08'0 0.0
2020-Aug-10 08:28N 50°22' W 004°08'0 0.0
2020-Aug-10 00:28N 50°22' W 004°08'0 0.0
2020-Aug-09 23:28N 50°22' W 004°08'0 0.0
2020-Aug-09 19:58N 50°22' W 004°08'0 0.0
2020-Aug-09 18:28N 50°22' W 004°08'0 0.0
2020-Aug-09 16:28N 50°22' W 004°08'0 0.0
2020-Aug-09 14:58N 50°22' W 004°08'0 0.0
2020-Aug-09 12:28N 50°22' W 004°08'0 0.0
2020-Aug-09 10:58N 50°22' W 004°08'0 0.0
2020-Aug-09 09:25N 50°22' W 004°08'3 0.8
2020-Aug-09 05:26N 50°20' W 004°11'0 0.0
2020-Aug-08 17:27N 50°20' W 004°11'25 8.3
2020-Aug-08 14:29N 50°09' W 003°36'11 7.6
2020-Aug-08 13:00N 50°09' W 003°19'5 3.2
2020-Aug-08 11:30N 50°11' W 003°12'1 2.7
2020-Aug-08 11:00N 50°11' W 003°09'2 1.4
2020-Aug-08 09:30N 50°11' W 003°06'1 1.9
2020-Aug-08 09:00N 50°12' W 003°05'3 3.0
2020-Aug-08 08:00N 50°12' W 003°00'15 5.1
2020-Aug-08 05:00N 50°18' W 002°38'6 6.2
2020-Aug-08 03:58N 50°20' W 002°28'5 5.0
2020-Aug-08 03:00N 50°21' W 002°21'10 4.9
2020-Aug-08 01:00N 50°25' W 002°07'2 1.7
2020-Aug-08 00:00N 50°26' W 002°06'3 1.7
2020-Aug-07 22:00N 50°29' W 002°09'2 0.8
2020-Aug-07 19:30N 50°29' W 002°12'3 1.4
2020-Aug-07 17:25N 50°30' W 002°08'3 3.1
2020-Aug-07 16:30N 50°31' W 002°03'16 6.4
2020-Aug-07 14:00N 50°38' W 001°41'8 8.2
2020-Aug-07 12:59N 50°43' W 001°31'4 7.2
2020-Aug-07 12:28N 50°45' W 001°25'7 3.8
2020-Aug-07 10:30N 50°52' W 001°22'2 3.2
2020-Aug-07 09:59N 50°53' W 001°24'0 0.0
2020-Aug-07 06:21N 50°53' W 001°24'0 0.0
2020-Aug-07 05:00N 50°53' W 001°24'0 0.0
2020-Aug-07 04:23N 50°53' W 001°24'1 0.1
2020-Aug-06 13:30N 50°52' W 001°23'16 2.2
2020-Aug-06 05:59N 50°39' W 001°09'0 0.0
2020-Aug-06 05:29N 50°39' W 001°09'0 0.0
2020-Aug-06 04:23N 50°39' W 001°09'0 0.0
2020-Aug-06 01:16N 50°39' W 001°09'22 7.8
2020-Aug-05 22:30N 50°37' W 000°35'17 6.8
2020-Aug-05 20:00N 50°37' W 000°08'3 7.0
2020-Aug-05 19:30N 50°37' W 000°03'15 7.7
2020-Aug-05 17:30N 50°39' E 000°21'23 6.6
2020-Aug-05 14:00N 50°51' E 000°53'5 4.7
2020-Aug-05 13:00N 50°53' E 000°59'2 4.3
2020-Aug-05 12:30N 50°54' E 001°02'12 0.4
2020-Aug-04 09:19N 51°05' E 001°12'0 0.1
2020-Aug-04 08:56N 51°05' E 001°12'0 0.3
2020-Aug-04 08:30N 51°05' E 001°12'26 7.0
2020-Aug-04 04:50N 50°46' E 000°44'7 8.1
2020-Aug-04 04:00N 50°42' E 000°35'7 7.3
2020-Aug-04 03:00N 50°39' E 000°24'25 5.2
2020-Aug-03 22:12N 50°36' W 000°15'37 7.6
2020-Aug-03 17:21N 50°29' W 001°12'5 5.3
2020-Aug-03 16:25N 50°28' W 001°19'4 3.8
2020-Aug-03 15:28N 50°28' W 001°25'56 6.5
2020-Aug-03 06:56N 50°14' W 002°49'1510.4
2020-Aug-03 05:30N 50°12' W 003°12'1010.0
2020-Aug-03 04:31N 50°09' W 003°27'82 4.5
2020-Aug-02 10:27N 50°41' W 005°26'4 9.3
2020-Aug-02 09:59N 50°44' W 005°21'  

Dump ship's entire track history